Time;durP1;ratioP1;P1;durP2;ratioP2;P2;SDS_P1;SDS_P2;PMS_P1;PMS_P2;Temp;Humidity;BMP_temperature;BMP_pressure;BME280_temperature;BME280_humidity;BME280_pressure;Samples;Min_cycle;Max_cycle;Signal;HPM_P1;HPM_P2
2022/10/22 00:01:23;;;;;;;16.55;6.55;;;;;;;10.78;100.00;100900.53;4967865;28;21800;-76
2022/10/22 00:03:48;;;;;;;11.63;7.13;;;;;;;10.72;100.00;100898.06;4973496;28;20026;-76
2022/10/22 00:06:14;;;;;;;16.35;8.00;;;;;;;10.72;100.00;100903.25;4972548;28;20034;-76
2022/10/22 00:08:39;;;;;;;13.93;6.50;;;;;;;10.71;100.00;100896.34;4970749;28;20030;-76
2022/10/22 00:11:16;;;;;;;12.75;6.80;;;;;;;10.70;100.00;100899.84;4973638;28;20027;-76
2022/10/22 00:13:42;;;;;;;17.25;7.40;;;;;;;10.71;100.00;100901.56;4970641;28;20034;-76
2022/10/22 00:16:08;;;;;;;11.65;6.72;;;;;;;10.62;100.00;100897.41;4973285;28;20035;-76
2022/10/22 00:18:33;;;;;;;9.63;7.13;;;;;;;10.65;100.00;100884.28;4968536;28;20065;-76
2022/10/22 00:20:59;;;;;;;12.70;7.00;;;;;;;10.63;100.00;100891.31;4972357;28;20054;-76
2022/10/22 00:23:24;;;;;;;16.30;6.85;;;;;;;10.65;100.00;100901.69;4971117;28;20122;-76
2022/10/22 00:25:49;;;;;;;15.13;7.03;;;;;;;10.67;100.00;100894.72;4973229;28;20489;-76
2022/10/22 00:28:15;;;;;;;14.60;7.05;;;;;;;10.63;100.00;100888.72;4972165;28;20377;-76
2022/10/22 00:30:40;;;;;;;10.27;7.13;;;;;;;10.62;100.00;100886.13;4971027;28;20089;-76
2022/10/22 00:33:05;;;;;;;13.15;7.03;;;;;;;10.62;100.00;100901.75;4970369;28;20041;-76
2022/10/22 00:35:31;;;;;;;14.32;7.50;;;;;;;10.59;100.00;100897.47;4969891;28;20026;-76
2022/10/22 00:37:57;;;;;;;13.35;7.60;;;;;;;10.61;100.00;100902.66;4973059;28;20019;-76
2022/10/22 00:40:22;;;;;;;21.27;8.23;;;;;;;10.63;100.00;100904.34;4972058;28;20110;-76
2022/10/22 00:42:47;;;;;;;14.68;8.23;;;;;;;10.69;100.00;100898.13;4969178;28;20050;-76
2022/10/22 00:45:16;;;;;;;16.55;8.93;;;;;;;10.70;100.00;100911.13;4970761;28;20041;-76
2022/10/22 00:48:03;;;;;;;13.05;7.80;;;;;;;10.71;100.00;100906.78;4972409;28;20023;-76
2022/10/22 00:50:38;;;;;;;18.23;7.47;;;;;;;10.71;100.00;100899.81;4971731;28;20030;-75
2022/10/22 00:53:08;;;;;;;15.13;7.95;;;;;;;10.72;100.00;100905.88;4969888;28;20031;-76
2022/10/22 00:55:34;;;;;;;13.77;7.55;;;;;;;10.73;100.00;100905.84;4959523;28;20064;-76
2022/10/22 00:58:01;;;;;;;14.10;8.13;;;;;;;10.68;100.00;100892.06;4972391;28;20030;-76
2022/10/22 01:00:26;;;;;;;13.18;8.02;;;;;;;10.71;100.00;100896.34;4971443;28;20093;-76
2022/10/22 01:02:54;;;;;;;13.90;7.97;;;;;;;10.72;100.00;100900.66;4968994;28;20360;-76
2022/10/22 01:05:20;;;;;;;16.08;8.52;;;;;;;10.71;100.00;100898.94;4969643;28;20037;-76
2022/10/22 01:07:48;;;;;;;16.80;7.82;;;;;;;10.66;100.00;100893.84;4972552;28;20110;-76
2022/10/22 01:10:32;;;;;;;18.88;9.20;;;;;;;10.75;100.00;100897.97;4971212;28;20038;-76
2022/10/22 01:12:57;;;;;;;;;;;;;;;10.68;100.00;100899.03;4969303;28;20070;-76
2022/10/22 01:15:38;;;;;;;18.93;8.40;;;;;;;10.73;100.00;100902.41;4970309;28;19961;-75
2022/10/22 01:18:09;;;;;;;19.63;8.25;;;;;;;10.70;100.00;100907.69;4971741;28;20310;-76
2022/10/22 01:20:44;;;;;;;20.92;9.30;;;;;;;10.65;100.00;100901.69;4965144;28;20027;-76
2022/10/22 01:23:40;;;;;;;19.58;8.20;;;;;;;10.64;100.00;100900.84;4960553;28;20360;-76
2022/10/22 01:26:31;;;;;;;22.63;9.30;;;;;;;10.63;100.00;100891.31;4971918;28;20050;-76
2022/10/22 01:29:08;;;;;;;16.67;8.68;;;;;;;10.63;100.00;100899.13;4972292;28;20030;-76
2022/10/22 01:31:45;;;;;;;13.65;8.10;;;;;;;10.62;100.00;100899.16;4969494;28;20027;-76
2022/10/22 01:34:15;;;;;;;15.75;8.15;;;;;;;10.61;100.00;100902.66;4968392;28;20038;-76
2022/10/22 01:36:42;;;;;;;16.90;8.52;;;;;;;10.56;100.00;100897.53;4971495;28;20026;-76
2022/10/22 01:39:09;;;;;;;15.68;8.90;;;;;;;10.60;100.00;100893.13;4969823;28;20429;-76
2022/10/22 01:41:34;;;;;;;15.45;8.20;;;;;;;10.54;100.00;100892.38;4970072;28;20042;-76
2022/10/22 01:44:00;;;;;;;17.67;8.55;;;;;;;10.54;100.00;100894.97;4971950;28;20407;-76
2022/10/22 01:46:27;;;;;;;12.30;8.75;;;;;;;10.54;100.00;100886.31;4970080;28;20082;-76
2022/10/22 01:49:13;;;;;;;18.92;9.18;;;;;;;10.53;100.00;100889.81;4967737;28;20035;-76
2022/10/22 01:51:45;;;;;;;16.48;8.65;;;;;;;10.54;100.00;100883.69;4969851;28;20446;-76
2022/10/22 01:54:26;;;;;;;20.13;9.25;;;;;;;10.48;100.00;100878.63;4971483;28;20034;-76
2022/10/22 01:57:03;;;;;;;16.33;8.98;;;;;;;10.53;100.00;100893.28;4971734;28;20030;-76
2022/10/22 01:59:47;;;;;;;18.92;8.65;;;;;;;10.50;100.00;100889.88;4970538;28;20038;-75
2022/10/22 02:02:44;;;;;;;18.27;9.25;;;;;;;10.45;100.00;100889.97;4968428;28;20031;-76
2022/10/22 02:05:20;;;;;;;16.90;8.88;;;;;;;10.45;100.00;100884.75;4971502;28;20046;-76
2022/10/22 02:07:54;;;;;;;18.33;9.40;;;;;;;10.47;100.00;100893.41;4971888;28;20019;-76
2022/10/22 02:10:21;;;;;;;18.65;9.38;;;;;;;10.43;100.00;100899.59;4970595;28;20030;-75
2022/10/22 02:12:52;;;;;;;19.63;8.48;;;;;;;10.47;100.00;100898.63;4970984;28;20038;-76
2022/10/22 02:15:20;;;;;;;16.75;9.00;;;;;;;10.45;100.00;100902.16;4970865;28;20031;-76
2022/10/22 02:17:46;;;;;;;19.30;9.20;;;;;;;10.44;100.00;100900.44;4971612;28;20030;-76
2022/10/22 02:20:17;;;;;;;17.10;9.60;;;;;;;10.41;100.00;100896.16;4971072;28;20023;-76
2022/10/22 02:22:44;;;;;;;22.00;9.60;;;;;;;10.44;100.00;100893.47;4971491;28;20050;-76
2022/10/22 02:25:10;;;;;;;17.80;11.23;;;;;;;10.41;100.00;100901.34;4973189;28;20062;-75
2022/10/22 02:27:43;;;;;;;16.50;9.43;;;;;;;10.38;100.00;100895.34;4974133;28;20034;-76
2022/10/22 02:30:12;;;;;;;20.85;10.20;;;;;;;10.34;100.00;100894.56;4975326;28;20023;-75
2022/10/22 02:32:42;;;;;;;22.67;10.15;;;;;;;10.32;100.00;100891.13;4972176;28;20030;-76
2022/10/22 02:35:11;;;;;;;17.63;9.27;;;;;;;10.35;100.00;100898.88;4974727;28;20121;-75
2022/10/22 02:37:37;;;;;;;16.88;9.55;;;;;;;10.33;100.00;100898.03;4974488;28;20061;-75
2022/10/22 02:40:03;;;;;;;17.67;9.43;;;;;;;10.38;100.00;100892.75;4975204;28;20454;-76
2022/10/22 02:42:28;;;;;;;21.35;9.90;;;;;;;10.44;100.00;100897.84;4970843;28;20141;-75
2022/10/22 02:44:54;;;;;;;26.75;11.23;;;;;;;10.46;100.00;100896.91;4975071;28;20101;-75
2022/10/22 02:47:19;;;;;;;25.08;10.93;;;;;;;10.52;100.00;100901.13;4974546;28;20111;-75
2022/10/22 02:49:44;;;;;;;24.23;10.60;;;;;;;10.56;100.00;100902.75;4973993;28;20030;-75
2022/10/22 02:52:10;;;;;;;27.42;10.82;;;;;;;10.59;100.00;100910.50;4970969;28;20031;-76
2022/10/22 02:54:35;;;;;;;22.80;10.68;;;;;;;10.54;100.00;100904.56;4973559;28;20425;-76
2022/10/22 02:57:00;;;;;;;27.15;9.98;;;;;;;10.54;100.00;100905.41;4974648;28;20031;-76
2022/10/22 02:59:26;;;;;;;23.85;11.05;;;;;;;10.48;100.00;100915.97;4973719;28;20129;-75
2022/10/22 03:01:51;;;;;;;28.58;10.93;;;;;;;10.46;100.00;100907.34;4971218;28;20030;-76
2022/10/22 03:04:16;;;;;;;25.05;10.85;;;;;;;10.45;100.00;100908.22;4973179;28;20042;-76
2022/10/22 03:06:43;;;;;;;28.55;10.82;;;;;;;10.38;100.00;100914.44;4974212;28;20574;-76
2022/10/22 03:09:08;;;;;;;31.75;10.95;;;;;;;10.37;100.00;100911.91;4974191;28;20102;-76
2022/10/22 03:11:33;;;;;;;31.20;10.80;;;;;;;10.36;100.00;100916.22;4970639;28;20015;-76
2022/10/22 03:13:59;;;;;;;19.33;10.20;;;;;;;10.33;100.00;100916.28;4974448;28;20062;-76
2022/10/22 03:16:24;;;;;;;21.42;10.13;;;;;;;10.30;100.00;100914.63;4973126;28;20042;-76
2022/10/22 03:18:49;;;;;;;29.20;10.70;;;;;;;10.38;100.00;100916.22;4974023;28;20022;-76
2022/10/22 03:21:36;;;;;;;22.08;10.63;;;;;;;10.37;100.00;100923.16;4970910;28;20018;-76
2022/10/22 03:24:07;;;;;;;25.13;10.00;;;;;;;10.48;100.00;100921.19;4972525;28;20031;-76
2022/10/22 03:26:33;;;;;;;23.00;11.27;;;;;;;10.51;100.00;100915.91;4972051;28;20042;-76
2022/10/22 03:28:59;;;;;;;23.70;11.13;;;;;;;10.50;100.00;100914.19;4974141;28;20034;-76
2022/10/22 03:31:25;;;;;;;24.70;10.32;;;;;;;10.54;100.00;100923.66;4969832;28;20390;-76
2022/10/22 03:33:50;;;;;;;29.98;10.48;;;;;;;10.53;100.00;100926.31;4973408;28;20037;-76
2022/10/22 03:36:16;;;;;;;22.25;10.00;;;;;;;10.48;100.00;100923.78;4973544;28;20042;-76
2022/10/22 03:38:41;;;;;;;22.95;9.82;;;;;;;10.52;100.00;100930.63;4972929;28;20027;-76
2022/10/22 03:41:07;;;;;;;30.30;10.27;;;;;;;10.53;100.00;100931.53;4972115;28;20062;-76
2022/10/22 03:43:34;;;;;;;22.85;9.98;;;;;;;10.59;100.00;100943.53;4972777;28;20047;-76
2022/10/22 03:45:59;;;;;;;31.73;10.23;;;;;;;10.54;100.00;100941.06;4973261;28;20049;-76
2022/10/22 03:48:25;;;;;;;27.27;10.27;;;;;;;10.54;100.00;100936.69;4973126;28;20459;-76
2022/10/22 03:50:50;;;;;;;29.98;10.27;;;;;;;10.64;100.00;100946.91;4967479;28;20129;-76
2022/10/22 03:53:15;;;;;;;26.25;9.57;;;;;;;10.58;100.00;100936.63;4972196;28;20034;-76
2022/10/22 03:55:41;;;;;;;31.73;10.57;;;;;;;10.64;100.00;100953.00;4972258;28;20038;-76
2022/10/22 03:58:06;;;;;;;33.85;10.57;;;;;;;10.62;100.00;100948.69;4973280;28;20081;-76
2022/10/22 04:00:34;;;;;;;27.70;10.30;;;;;;;10.63;100.00;100945.22;4969271;28;20070;-76
2022/10/22 04:02:59;;;;;;;26.98;9.63;;;;;;;10.63;100.00;100953.03;4973586;28;20019;-76
2022/10/22 04:05:25;;;;;;;25.02;9.38;;;;;;;10.61;100.00;100953.06;4972356;28;20042;-76
2022/10/22 04:07:50;;;;;;;30.67;9.82;;;;;;;10.62;100.00;100948.69;4973288;28;20386;-76
2022/10/22 04:10:15;;;;;;;29.27;10.20;;;;;;;10.63;100.00;100951.28;4971942;28;20109;-76
2022/10/22 04:12:41;;;;;;;32.38;10.88;;;;;;;10.63;100.00;100947.81;4971743;28;20030;-76
2022/10/22 04:15:07;;;;;;;25.25;10.07;;;;;;;10.68;100.00;100961.59;4973247;28;20112;-75
2022/10/22 04:17:34;;;;;;;32.55;9.93;;;;;;;10.73;100.00;100957.16;4972332;28;20057;-75
2022/10/22 04:20:00;;;;;;;24.30;9.63;;;;;;;10.76;100.00;100968.38;4970153;28;20462;-76
2022/10/22 04:22:25;;;;;;;23.13;9.32;;;;;;;10.74;100.00;100953.66;4969733;28;20045;-76
2022/10/22 04:24:50;;;;;;;23.60;9.27;;;;;;;10.70;100.00;100952.00;4973056;28;20031;-76
2022/10/22 04:27:16;;;;;;;28.10;9.65;;;;;;;10.70;100.00;100965.91;4972067;28;20038;-75
2022/10/22 04:29:41;;;;;;;24.30;10.10;;;;;;;10.67;100.00;100959.88;4971008;28;20027;-75
2022/10/22 04:32:06;;;;;;;28.33;9.18;;;;;;;10.64;100.00;100953.00;4972810;28;20030;-76
2022/10/22 04:34:31;;;;;;;24.42;9.43;;;;;;;10.67;100.00;100965.97;4971213;28;20533;-76
2022/10/22 04:36:57;;;;;;;29.90;9.55;;;;;;;10.70;100.00;100958.06;4972993;28;20038;-76
2022/10/22 04:39:22;;;;;;;36.75;10.70;;;;;;;10.67;100.00;100957.28;4971796;28;20031;-76
2022/10/22 04:41:47;;;;;;;29.38;9.77;;;;;;;10.73;100.00;100967.59;4970285;28;20430;-76
2022/10/22 04:44:13;;;;;;;28.75;9.25;;;;;;;10.69;100.00;100963.31;4972016;28;20106;-75
2022/10/22 04:46:38;;;;;;;30.70;9.07;;;;;;;10.68;100.00;100966.81;4972300;28;20097;-76
2022/10/22 04:49:03;;;;;;;27.40;9.15;;;;;;;10.64;100.00;100950.38;4972097;28;20052;-76
2022/10/22 04:51:29;;;;;;;32.05;9.27;;;;;;;10.71;100.00;100966.75;4967806;28;20034;-76
2022/10/22 04:53:55;;;;;;;26.52;8.68;;;;;;;10.73;100.00;100978.00;4972564;28;20364;-76
2022/10/22 04:56:23;;;;;;;26.05;9.63;;;;;;;10.73;100.00;100968.44;4970960;28;20038;-76
2022/10/22 04:59:09;;;;;;;26.60;9.45;;;;;;;10.69;100.00;100966.78;4972773;28;20026;-76
2022/10/22 05:01:40;;;;;;;27.33;9.52;;;;;;;10.73;100.00;100976.25;4969934;28;20542;-76
2022/10/22 05:04:07;;;;;;;16.55;8.80;;;;;;;10.81;100.00;100968.25;4967901;28;20078;-76
2022/10/22 05:06:34;;;;;;;40.75;10.30;;;;;;;10.81;100.00;100970.88;4970419;28;20038;-76
2022/10/22 05:09:03;;;;;;;33.42;10.52;;;;;;;10.80;100.00;100958.72;4972179;28;20023;-76
2022/10/22 05:11:32;;;;;;;25.27;10.07;;;;;;;10.90;100.00;100968.06;4969335;28;20458;-76
2022/10/22 05:13:58;;;;;;;41.50;10.75;;;;;;;10.99;100.00;100975.69;4972398;28;20413;-76
2022/10/22 05:16:24;;;;;;;35.45;10.95;;;;;;;11.09;100.00;100976.31;4970719;28;20371;-76
2022/10/22 05:18:50;;;;;;;37.00;10.10;;;;;;;11.11;100.00;100981.50;4972044;28;20065;-76
2022/10/22 05:21:17;;;;;;;36.50;10.63;;;;;;;11.19;100.00;100976.97;4965827;28;20113;-76
2022/10/22 05:23:44;;;;;;;28.33;10.77;;;;;;;11.23;100.00;100978.59;4970392;28;20085;-76
2022/10/22 05:26:11;;;;;;;36.53;11.13;;;;;;;11.21;100.00;100982.97;4972009;28;20034;-76
2022/10/22 05:28:37;;;;;;;31.85;10.73;;;;;;;11.21;100.00;100977.75;4971635;28;20039;-76
2022/10/22 05:31:04;;;;;;;30.95;10.13;;;;;;;11.21;100.00;100978.63;4970549;28;20154;-76
2022/10/22 05:33:31;;;;;;;31.73;9.48;;;;;;;11.22;100.00;100976.88;4971016;28;20501;-76
2022/10/22 05:35:57;;;;;;;27.30;9.65;;;;;;;11.20;100.00;100982.13;4968479;28;20042;-76
2022/10/22 05:38:23;;;;;;;32.53;10.35;;;;;;;11.23;100.00;100981.22;4970689;28;20049;-76
2022/10/22 05:40:59;;;;;;;33.55;9.20;;;;;;;11.17;100.00;100978.75;4970356;28;20483;-76
2022/10/22 05:43:24;;;;;;;31.80;9.55;;;;;;;11.16;100.00;100990.94;4958000;28;20545;-76
2022/10/22 05:45:50;;;;;;;33.92;10.07;;;;;;;11.20;100.00;100994.31;4971774;28;20073;-76
2022/10/22 05:48:15;;;;;;;29.08;9.20;;;;;;;11.15;100.00;100991.84;4971364;28;20023;-76
2022/10/22 05:50:40;;;;;;;32.25;9.90;;;;;;;11.11;100.00;100991.91;4967704;28;20484;-76
2022/10/22 05:53:05;;;;;;;26.15;8.90;;;;;;;11.04;100.00;100992.97;4970741;28;20046;-76
2022/10/22 05:55:35;;;;;;;28.92;8.90;;;;;;;11.10;100.00;100998.03;4971423;28;20030;-76
2022/10/22 05:58:02;;;;;;;31.63;8.48;;;;;;;11.07;100.00;101008.56;4975340;28;20030;-76
2022/10/22 06:00:27;;;;;;;29.60;8.43;;;;;;;11.04;100.00;101006.88;4973677;28;20426;-76
2022/10/22 06:02:52;;;;;;;26.58;7.72;;;;;;;11.02;100.00;101021.72;4974908;28;20113;-76
2022/10/22 06:05:18;;;;;;;27.42;9.02;;;;;;;10.98;100.00;101018.28;4974470;28;20082;-76
2022/10/22 06:07:43;;;;;;;28.35;7.95;;;;;;;10.90;100.00;101007.19;4975603;28;20023;-76
2022/10/22 06:10:18;;;;;;;31.63;8.95;;;;;;;10.96;100.00;101020.09;4973610;28;20022;-76
2022/10/22 06:12:43;;;;;;;19.27;7.93;;;;;;;10.94;100.00;101019.25;4974114;28;20509;-76
2022/10/22 06:15:11;;;;;;;27.33;7.97;;;;;;;10.95;100.00;101034.03;4975458;28;20027;-76
2022/10/22 06:17:36;;;;;;;28.00;8.35;;;;;;;10.97;100.00;101028.75;4974994;28;20039;-76
2022/10/22 06:20:02;;;;;;;25.33;7.90;;;;;;;10.99;100.00;101038.28;4973281;28;21095;-76
2022/10/22 06:22:27;;;;;;;31.67;8.77;;;;;;;11.06;100.00;101043.38;4973162;28;20113;-76
2022/10/22 06:24:52;;;;;;;30.25;8.20;;;;;;;11.06;100.00;101039.00;4975582;28;20027;-76
2022/10/22 06:27:17;;;;;;;24.08;8.18;;;;;;;11.11;100.00;101051.94;4970363;28;20030;-76
2022/10/22 06:29:43;;;;;;;29.42;8.52;;;;;;;11.09;100.00;101053.75;4974817;28;20031;-76
2022/10/22 06:32:08;;;;;;;37.17;8.68;;;;;;;11.06;100.00;101048.59;4973818;28;20386;-76
2022/10/22 06:34:33;;;;;;;29.40;8.00;;;;;;;10.98;100.00;101062.63;4973499;28;20027;-76
2022/10/22 06:36:58;;;;;;;33.05;8.60;;;;;;;10.96;100.00;101054.00;4972665;28;20474;-76
2022/10/22 06:39:24;;;;;;;26.23;7.50;;;;;;;11.04;100.00;101068.63;4974173;28;20023;-76
2022/10/22 06:41:49;;;;;;;20.95;7.40;;;;;;;11.02;100.00;101069.53;4972902;28;20034;-76
2022/10/22 06:44:16;;;;;;;26.95;8.35;;;;;;;10.99;100.00;101074.81;4974682;28;20031;-76
2022/10/22 06:46:41;;;;;;;28.00;8.70;;;;;;;10.96;100.00;101071.41;4974863;28;20085;-76
2022/10/22 06:49:11;;;;;;;24.20;7.80;;;;;;;10.97;100.00;101079.19;4981677;28;20031;-76
2022/10/22 06:51:36;;;;;;;21.90;7.28;;;;;;;10.98;100.00;101085.25;4984557;28;20450;-76
2022/10/22 06:54:02;;;;;;;30.23;7.78;;;;;;;10.98;100.00;101090.47;4976358;28;20027;-76
2022/10/22 06:56:28;;;;;;;26.05;6.95;;;;;;;10.91;100.00;101084.53;4976242;28;20042;-76
2022/10/22 06:58:55;;;;;;;22.95;7.28;;;;;;;10.96;100.00;101095.75;4975068;28;20046;-76
2022/10/22 07:01:28;;;;;;;28.35;7.53;;;;;;;10.92;100.00;101099.31;4973019;28;20391;-75
2022/10/22 07:03:54;;;;;;;24.02;7.30;;;;;;;10.91;100.00;101101.94;4975052;28;20077;-76
2022/10/22 07:06:22;;;;;;;21.75;6.90;;;;;;;10.92;100.00;101107.13;4976299;28;20026;-76
2022/10/22 07:08:47;;;;;;;22.40;7.55;;;;;;;10.94;100.00;101105.34;4960550;28;20030;-76
2022/10/22 07:11:16;;;;;;;26.65;7.13;;;;;;;10.97;100.00;101114.84;4974433;28;20467;-76
2022/10/22 07:13:42;;;;;;;25.20;7.53;;;;;;;11.05;100.00;101119.91;4973886;28;20089;-75
2022/10/22 07:16:08;;;;;;;25.05;8.25;;;;;;;11.11;100.00;101120.63;4973962;28;20039;-76
2022/10/22 07:18:34;;;;;;;28.75;7.65;;;;;;;11.17;100.00;101120.50;4973474;28;20030;-76
2022/10/22 07:21:00;;;;;;;27.50;8.63;;;;;;;11.25;100.00;101133.41;4974589;28;20019;-76
2022/10/22 07:23:26;;;;;;;29.08;8.30;;;;;;;11.26;100.00;101127.28;4972872;28;20085;-76
2022/10/22 07:25:51;;;;;;;25.13;7.50;;;;;;;11.29;100.00;101136.81;4974347;28;20113;-76
2022/10/22 07:28:17;;;;;;;24.27;7.55;;;;;;;11.33;100.00;101139.31;4973998;28;20467;-76
2022/10/22 07:30:42;;;;;;;18.52;7.20;;;;;;;11.32;100.00;101144.56;4972976;28;20165;-76
2022/10/22 07:33:08;;;;;;;26.70;7.80;;;;;;;11.36;100.00;101146.22;4974446;28;20019;-76
2022/10/22 07:35:35;;;;;;;25.10;7.60;;;;;;;11.40;100.00;101145.25;4973138;28;20023;-76
2022/10/22 07:38:00;;;;;;;24.85;7.80;;;;;;;11.46;100.00;101147.72;4972068;28;20422;-76
2022/10/22 07:40:26;;;;;;;20.15;7.10;;;;;;;11.51;100.00;101153.72;4968390;28;20038;-76
2022/10/22 07:42:51;;;;;;;23.70;7.97;;;;;;;11.62;100.00;101150.84;4970442;28;20045;-77
2022/10/22 07:45:17;;;;;;;20.13;7.70;;;;;;;11.61;100.00;101147.38;4971640;28;20034;-77
2022/10/22 07:47:42;;;;;;;20.02;7.93;;;;;;;11.67;100.00;101151.59;4968848;28;20482;-76
2022/10/22 07:50:08;;;;;;;28.15;9.10;;;;;;;11.72;100.00;101147.13;4970889;28;20034;-77
2022/10/22 07:52:33;;;;;;;26.05;7.53;;;;;;;11.79;100.00;101153.06;4971795;28;20031;-76
2022/10/22 07:54:58;;;;;;;21.10;6.82;;;;;;;11.84;100.00;101152.13;4973687;28;20051;-77
2022/10/22 07:57:24;;;;;;;23.73;6.68;;;;;;;11.87;100.00;101162.50;4972076;28;20042;-77
2022/10/22 07:59:49;;;;;;;18.10;6.55;;;;;;;11.98;100.00;101164.84;4973556;28;20083;-76
2022/10/22 08:02:15;;;;;;;21.42;6.55;;;;;;;12.01;100.00;101169.13;4972852;28;20030;-77
2022/10/22 08:04:41;;;;;;;23.80;6.45;;;;;;;11.99;100.00;101176.16;4967589;28;20035;-77
2022/10/22 08:07:07;;;;;;;27.02;6.07;;;;;;;12.01;100.00;101176.97;4972479;28;20026;-76
2022/10/22 08:09:32;;;;;;;19.63;5.53;;;;;;;11.97;100.00;101172.69;4967788;28;20368;-73
2022/10/22 08:11:57;;;;;;;21.65;5.63;;;;;;;11.99;100.00;101178.75;4972235;28;20074;-76
2022/10/22 08:14:22;;;;;;;20.98;6.45;;;;;;;12.07;100.00;101182.06;4971426;28;20042;-75
2022/10/22 08:16:48;;;;;;;22.08;5.85;;;;;;;12.17;100.00;101192.25;4972790;28;20038;-75
2022/10/22 08:19:17;;;;;;;20.73;5.55;;;;;;;12.30;100.00;101190.19;4971443;28;20025;-75
2022/10/22 08:21:44;;;;;;;19.35;4.82;;;;;;;12.36;100.00;101179.59;4972640;28;20034;-75
2022/10/22 08:24:11;;;;;;;12.65;4.50;;;;;;;12.41;100.00;101202.97;4971104;28;20034;-76
2022/10/22 08:26:36;;;;;;;17.38;4.72;;;;;;;12.44;100.00;101202.91;4980280;28;20486;-76
2022/10/22 08:29:02;;;;;;;17.77;4.75;;;;;;;12.50;100.00;101209.75;4976370;28;20025;-76
2022/10/22 08:31:27;;;;;;;13.85;4.45;;;;;;;12.64;100.00;101202.38;4971968;28;20039;-76
2022/10/22 08:33:53;;;;;;;15.18;4.47;;;;;;;12.79;100.00;101214.22;4972482;28;20030;-75
2022/10/22 08:36:18;;;;;;;14.07;4.18;;;;;;;12.92;100.00;101209.53;4972284;28;20106;-76
2022/10/22 08:38:43;;;;;;;17.65;4.07;;;;;;;13.11;100.00;101213.31;4966077;28;20035;-75
2022/10/22 08:41:17;;;;;;;18.05;3.85;;;;;;;13.33;100.00;101219.69;4971400;28;20027;-76
2022/10/22 08:43:53;;;;;;;19.25;3.80;;;;;;;13.56;100.00;101223.41;4968789;28;20039;-76
2022/10/22 08:46:30;;;;;;;17.60;3.03;;;;;;;13.73;100.00;101222.88;4971298;28;20046;-76
2022/10/22 08:48:59;;;;;;;13.25;3.78;;;;;;;13.76;100.00;101220.19;4970987;28;20549;-76
2022/10/22 08:51:29;;;;;;;15.20;3.38;;;;;;;13.92;100.00;101231.06;4971118;28;20086;-75
2022/10/22 08:54:13;;;;;;;13.07;3.60;;;;;;;14.08;100.00;101236.69;4968565;28;20109;-78
2022/10/22 08:56:44;;;;;;;11.18;2.78;;;;;;;14.18;100.00;101232.84;4970934;28;20048;-75
2022/10/22 08:59:37;;;;;;;11.18;2.60;;;;;;;14.30;100.00;101237.72;4971646;28;20478;-75
2022/10/22 09:02:11;;;;;;;12.13;3.30;;;;;;;14.33;100.00;101244.63;4958288;28;20047;-75
2022/10/22 09:04:49;;;;;;;8.95;2.53;;;;;;;14.33;100.00;101237.59;4970993;28;20043;-75
2022/10/22 09:07:15;;;;;;;8.55;2.33;;;;;;;14.32;100.00;101240.25;4959593;28;20062;-75
2022/10/22 09:09:47;;;;;;;9.73;2.60;;;;;;;14.51;100.00;101250.13;4969171;28;20058;-75
2022/10/22 09:12:15;;;;;;;10.95;2.78;;;;;;;14.58;100.00;101255.19;4972196;28;20031;-75
2022/10/22 09:14:40;;;;;;;12.63;2.65;;;;;;;14.70;100.00;101262.66;4966764;28;20141;-75
2022/10/22 09:17:27;;;;;;;10.52;2.30;;;;;;;14.72;100.00;101271.34;4972198;28;20629;-75
2022/10/22 09:20:08;;;;;;;11.07;2.78;;;;;;;14.76;100.00;101270.31;4969320;28;20525;-75
2022/10/22 09:22:56;;;;;;;13.65;2.60;;;;;;;14.75;100.00;101269.47;4967297;28;20030;-75
2022/10/22 09:25:25;;;;;;;8.25;2.47;;;;;;;14.84;100.00;101277.91;4967495;28;20062;-75
2022/10/22 09:27:57;;;;;;;12.25;2.17;;;;;;;14.95;100.00;101275.78;4972231;28;20061;-73
2022/10/22 09:30:26;;;;;;;9.80;2.60;;;;;;;14.97;100.00;101268.69;4976152;28;20027;-78
2022/10/22 09:33:25;;;;;;;15.02;2.60;;;;;;;15.06;100.00;101286.75;4972130;28;20022;-78
2022/10/22 09:35:54;;;;;;;15.95;2.90;;;;;;;15.02;100.00;101285.16;4942459;28;20035;-78
2022/10/22 09:38:25;;;;;;;6.53;1.88;;;;;;;15.01;100.00;101295.72;4971095;28;20031;-75
2022/10/22 09:40:54;;;;;;;12.07;2.42;;;;;;;14.98;100.00;101300.16;4972206;28;20046;-76
2022/10/22 09:43:19;;;;;;;7.82;2.03;;;;;;;15.01;100.00;101293.06;4970584;28;20118;-75
2022/10/22 09:45:46;;;;;;;12.27;2.33;;;;;;;15.13;100.00;101301.38;4970771;28;20110;-76
2022/10/22 09:48:20;;;;;;;12.75;2.78;;;;;;;15.23;100.00;101300.16;4970467;28;20027;-75
2022/10/22 09:50:53;;;;;;;9.55;2.47;;;;;;;15.37;100.00;101301.44;4969195;28;20089;-75
2022/10/22 09:53:25;;;;;;;10.43;2.58;;;;;;;15.43;100.00;101304.72;4970341;28;20105;-75
2022/10/22 09:55:57;;;;;;;8.05;2.40;;;;;;;15.50;100.00;101307.97;4971167;28;20402;-75
2022/10/22 09:58:22;;;;;;;11.15;2.50;;;;;;;15.46;100.00;101315.09;4966206;28;20094;-75
2022/10/22 10:00:56;;;;;;;8.82;2.22;;;;;;;15.52;100.00;101321.91;4972053;28;20031;-75
2022/10/22 10:03:22;;;;;;;;;;;;;;;15.61;100.00;101329.44;4970267;28;20019;-75
2022/10/22 10:05:51;;;;;;;10.85;2.58;;;;;;;15.57;100.00;101335.75;4971001;28;19914;-75
2022/10/22 10:08:18;;;;;;;11.10;2.50;;;;;;;15.62;100.00;101338.19;4966416;28;20043;-75
2022/10/22 10:10:58;;;;;;;13.07;2.53;;;;;;;15.70;100.00;101335.34;4968526;28;20382;-75
2022/10/22 10:13:52;;;;;;;10.23;2.80;;;;;;;15.80;100.00;101348.06;4969546;28;20475;-75
2022/10/22 10:16:23;;;;;;;;;;;;;;;15.89;100.00;101354.72;4971789;28;20046;-75
2022/10/22 10:19:19;;;;;;;7.25;2.42;;;;;;;15.87;100.00;101352.19;4970276;28;19925;-75
2022/10/22 10:22:08;;;;;;;9.25;2.33;;;;;;;15.84;100.00;101348.81;4971306;28;20053;-77
2022/10/22 10:24:52;;;;;;;9.13;2.13;;;;;;;15.94;100.00;101350.19;4969841;28;20027;-75
2022/10/22 10:27:37;;;;;;;14.18;2.63;;;;;;;16.21;100.00;101357.94;4964529;28;20375;-75
2022/10/22 10:30:11;;;;;;;8.50;2.83;;;;;;;16.25;100.00;101352.50;4968762;28;20035;-75
2022/10/22 10:32:47;;;;;;;10.68;3.17;;;;;;;16.33;100.00;101358.31;4965137;28;20070;-76
2022/10/22 10:35:15;;;;;;;8.82;2.70;;;;;;;16.38;100.00;101355.47;4970393;28;20475;-76
2022/10/22 10:37:46;;;;;;;7.03;2.97;;;;;;;16.43;100.00;101357.94;4968105;28;20046;-75
2022/10/22 10:40:36;;;;;;;9.40;2.58;;;;;;;16.34;100.00;101360.00;4969010;28;20089;-75
2022/10/22 10:43:42;;;;;;;10.63;3.08;;;;;;;16.31;100.00;101364.53;4971073;28;20081;-76
2022/10/22 10:46:22;;;;;;;10.07;2.90;;;;;;;16.48;100.00;101362.13;4973627;28;20137;-75
2022/10/22 10:48:54;;;;;;;8.27;2.47;;;;;;;16.69;100.00;101370.06;4975233;28;20023;-75
2022/10/22 10:51:34;;;;;;;11.02;2.75;;;;;;;16.75;100.00;101370.72;4974204;28;20031;-75
2022/10/22 10:54:56;;;;;;;9.95;2.80;;;;;;;16.77;100.00;101363.59;4974345;28;20074;-75
2022/10/22 10:57:46;;;;;;;11.50;2.97;;;;;;;16.79;100.00;101363.53;4885989;29;20115;-75
2022/10/22 11:00:18;;;;;;;11.60;3.10;;;;;;;16.82;100.00;101356.38;4970164;28;20189;-75
2022/10/22 11:03:14;;;;;;;9.10;3.53;;;;;;;16.96;100.00;101363.69;4972987;28;20414;-75
2022/10/22 11:05:53;;;;;;;6.65;2.55;;;;;;;17.18;100.00;101362.78;4980339;28;20389;-75
2022/10/22 11:08:29;;;;;;;10.38;2.75;;;;;;;17.19;98.44;101360.06;4970136;28;20019;-76
2022/10/22 11:11:10;;;;;;;8.90;2.40;;;;;;;17.09;100.00;101370.16;4973629;28;20039;-76
2022/10/22 11:14:10;;;;;;;11.88;2.38;;;;;;;16.87;100.00;101358.78;4973811;28;20106;-76
2022/10/22 11:16:43;;;;;;;11.40;2.45;;;;;;;16.48;100.00;101361.25;4935816;28;20046;-74
2022/10/22 11:19:18;;;;;;;9.32;3.17;;;;;;;16.34;100.00;101362.63;4973617;28;20532;-75
2022/10/22 11:21:51;;;;;;;7.65;2.63;;;;;;;16.54;100.00;101366.25;4971906;28;20035;-75